ADDS METAR Data INFO
IDs: Format: Raw Decoded Include TAF

Data at: 1513 UTC 11 Dec 2017

PANA 111456Z AUTO 36011G17KT 10SM OVC050 M03/M04 A2896 RMK AO2 SLP806 T10331039 55000 FZRANO
PANA 111356Z AUTO 35011KT 10SM OVC055 M04/M04 A2895 RMK AO2 SLP803 T10391044 FZRANO
PANA 111256Z AUTO 02011G16KT 10SM OVC055 M04/M05 A2895 RMK AO2 SLP803 T10391050 FZRANO
PANA 111056Z AUTO 03013G18KT 10SM FEW020 OVC080 M03/M04 A2898 RMK AO2 SNE19 SLP813 P0000 T10331044 FZRANO
PANA 110956Z AUTO 03010KT 9SM -SN BKN055 OVC070 M02/M02 A2900 RMK AO2 SLP820 P0000 T10171022 FZRANO
PANA 110856Z AUTO 02005KT 9SM -SN FEW028 OVC042 M03/M03 A2903 RMK AO2 SNB25 SLP830 P0000 60000 T10281033 410281083 56030 FZRANO
PANA 110756Z AUTO 04010KT 10SM CLR M04/M04 A2906 RMK AO2 SLP839 T10391044 FZRANO
PANA 110656Z AUTO 02012G16KT 10SM CLR M04/M04 A2908 RMK AO2 PRESFR SLP845 T10391044 FZRANO
PANA 110556Z AUTO 02009KT 10SM CLR M05/M06 A2912 RMK AO2 SLP860 60000 T10501056 11050 21078 58042 FZRANO
PANA 110456Z AUTO 01007KT 10SM CLR M06/M06 A2916 RMK AO2 SLP874 T10561061 FZRANO
PANA 110356Z AUTO 03004KT 10SM OVC060 M06/M07 A2921 RMK AO2 SNE42 SLP890 P0000 T10611067 FZRANO
PANA 110329Z AUTO 02004KT 9SM -SN SCT015 OVC070 M06/M07 A2922 RMK AO2 P0000 FZRANO
PANA 110316Z AUTO 02004KT 7SM -SN SCT015 BKN029 OVC070 M06/M07 A2923 RMK AO2 P0000 FZRANO
PANA 110256Z AUTO 04005KT 3SM -SN BR FEW017 OVC029 M07/M07 A2924 RMK AO2 SNB10 SLP901 P0000 60000 T10671072 58019 FZRANO
PANA 110156Z AUTO 02005KT 10SM BKN025 OVC070 M07/M08 A2927 RMK AO2 SLP910 T10721078 FZRANO
PANA 110152Z AUTO 03006KT 10SM BKN027 BKN055 OVC070 M07/M08 A2927 RMK AO2 FZRANO
PANA 110056Z AUTO 05006KT 10SM OVC055 M08/M08 A2930 RMK AO2 SLP920 T10781083 FZRANO
PANA 102356Z AUTO 04005KT 10SM BKN100 BKN120 M07/M08 A2931 RMK AO2 SNB40E50 SLP925 P0000 60000 T10721083 11067 21072 58021 FZRANO
PANA 102256Z AUTO 03008KT 10SM FEW008 OVC110 M07/M08 A2933 RMK AO2 SLP932 T10721083 FZRANO
PANA 102246Z AUTO 03008KT 10SM SCT008 OVC110 M07/M08 A2934 RMK AO2 FZRANO
PANA 102156Z AUTO 03009KT 10SM OVC008 M07/M08 A2936 RMK AO2 SLP941 T10671078 FZRANO
PANA 102108Z AUTO 03013G19KT 10SM OVC008 M07/M07 A2937 RMK AO2 FZRANO
PANA 102056Z AUTO 03010G15KT 10SM OVC010 M07/M07 A2938 RMK AO2 SLP947 T10671072 58014 FZRANO
PANA 101956Z AUTO 03011G16KT 10SM OVC010 M07/M08 A2940 RMK AO2 SLP953 T10671078 FZRANO
PANA 101856Z AUTO 04010G19KT 10SM OVC008 M07/M08 A2941 RMK AO2 SLP959 T10671078 FZRANO
PANA 101822Z AUTO 04010G15KT 10SM OVC006 M07/M07 A2942 RMK AO2 FZRANO
PANA 101756Z AUTO 04008G17KT 10SM OVC004 M07/M07 A2942 RMK AO2 SNE14 SLP960 P0000 60000 T10671072 11061 21072 58004 FZRANO
PANA 101656Z AUTO 03008G16KT 4SM -SN BR OVC004 M07/M08 A2943 RMK AO2 SNB56 CIG 003V007 SLP964 P0000 T10671078 FZRANO
PANA 101654Z AUTO 03011G16KT 5SM BR OVC004 M07/M08 A2943 RMK AO2 CIG 003V008 FZRANO
PANA 101556Z AUTO 02012G18KT 8SM OVC006 M07/M07 A2943 RMK AO2 SLP964 T10671072 FZRANO
PANA 101456Z AUTO 04012G21KT 10SM OVC006 M07/M07 A2944 RMK AO2 SLP969 T10671072 58010 FZRANO
PANA 101256Z AUTO 03009G21KT 10SM OVC006 M07/M07 A2946 RMK AO2 SLP976 T10671072 FZRANO
PANA 101156Z AUTO 04013G19KT 10SM OVC006 M07/M08 A2947 RMK AO2 SLP979 T10721078 11072 21089 58010 FZRANO
PANA 101056Z AUTO 03014G20KT 10SM OVC006 M08/M08 A2948 RMK AO2 SLP982 T10781083 FZRANO
PANA 101040Z AUTO 03014G20KT 10SM OVC006 M08/M09 A2949 RMK AO2 FZRANO
PANA 100956Z AUTO 03013G17KT 10SM BKN004 M08/M09 A2950 RMK AO2 SLP988 T10831089 FZRANO
PANA 100905Z AUTO 03013G18KT 10SM FEW005 M08/M09 A2950 RMK AO2 FZRANO
PANA 100856Z AUTO 03014G18KT 10SM CLR M08/M09 A2950 RMK AO2 SLP990 T10831094 410561094 56006 FZRANO
PANA 100756Z AUTO 03011G21KT 10SM FEW006 M08/M09 A2950 RMK AO2 SLP989 T10831094 FZRANO
PANA 100747Z AUTO 03011G18KT 10SM SCT006 M08/M09 A2950 RMK AO2 FZRANO
PANA 100709Z AUTO 03010KT 10SM BKN006 M08/M09 A2951 RMK AO2 FZRANO
PANA 100656Z AUTO 04010KT 10SM SCT006 M08/M09 A2952 RMK AO2 SLP996 T10831094 FZRANO
PANA 100629Z AUTO 03010KT 10SM FEW006 M08/M09 A2952 RMK AO2 FZRANO
PANA 100456Z AUTO 03009G17KT 10SM CLR M08/M09 A2953 RMK AO2 SLP000 T10831094 FZRANO